Portada
METAR-TAF:

METAR-TAF

Aeroports :

Aeroport Internacional de Phu Quoc

Phu Quoc, Vietnam

latitud: 10-10-18N, longitud: 103-59-28E, altitud: 11 m

Observació

L'informe es va fer fa 24 minuts, a les 01:30 UTC
Vent 4 kt del Sud
Temperatura 31°C
Humitat 59%
Pressió 1011 hPa
Visibilitat 10 km o més
Escasses núvols a una alçada de 1500 ft

METAR: VVPQ 300130Z 17004KT 9999 FEW015 31/22 Q1011 NOSIG

Hora: 08:54 (01:54 UTC)

Pronòstic

L'informe es va fer fa 2 hores i 54 minuts, a les 23:00 UTC
Pronòstic vàlid del 30 a les 00 UTC al 30 a les 24 UTC
Vent 2 kt amb direcció variable
Visibilitat 10 km o més
Núvols disperses a una alçada de 1500 ft
Evolucionant progressivament
l' 30 a les 03 UTC al 30 a les 04 UTC
Vent 10 kt del Sud/Sud-Oest

TAF: VVPQ 292300Z 3000/3024 VRB02KT 9999 SCT015 BECMG 3003/3004 20010KT

Observacions i pronòstics meteorològics de més de 4000 aeroports (METAR i TAF).

Les estacions disponibles són els punts grocs i vermells al mapa.

Posi el ratolí al punt desitjat per veure el nom de l'estació.

Feu clic per veure les observacions i els pronòstics meteorològics.

Per canviar el mapa: feu clic els botons verds amb una creu de color negre per apropar; al botó verd amb un guió per allunyar la imatge; o en les fletxes verdes per a mapes adjacents.


METAR-TAF: